Time;durP1;ratioP1;P1;durP2;ratioP2;P2;SDS_P1;SDS_P2;PMS_P1;PMS_P2;Temp;Humidity;BMP_temperature;BMP_pressure;BME280_temperature;BME280_humidity;BME280_pressure;Samples;Min_cycle;Max_cycle;Signal;HPM_P1;HPM_P2
2021/06/16 00:00:36;;;;;;;6.88;3.05;;;;;;;17.23;62.01;94734.31;5055305;28;20112;-83
2021/06/16 00:03:01;;;;;;;3.50;2.63;;;;;;;17.25;61.60;94725.13;5020295;28;20063;-82
2021/06/16 00:05:28;;;;;;;2.88;2.42;;;;;;;17.30;61.61;94730.31;5061628;28;20059;-81
2021/06/16 00:07:54;;;;;;;6.05;2.85;;;;;;;17.26;61.55;94724.06;5057349;28;20044;-82
2021/06/16 00:10:22;;;;;;;2.67;2.47;;;;;;;17.23;61.67;94726.41;5021004;28;20324;-82
2021/06/16 00:12:48;;;;;;;3.70;2.70;;;;;;;17.21;61.66;94721.44;5037171;28;20035;-83
2021/06/16 00:15:18;;;;;;;3.38;2.85;;;;;;;17.26;61.99;94718.00;5037631;28;20037;-82
2021/06/16 00:17:44;;;;;;;7.30;2.75;;;;;;;17.28;61.68;94727.19;5037492;28;20130;-82
2021/06/16 00:20:10;;;;;;;3.20;3.00;;;;;;;17.27;61.79;94714.31;5039210;28;20032;-82
2021/06/16 00:22:36;;;;;;;5.93;2.63;;;;;;;17.25;61.85;94711.19;5039100;28;20043;-82
2021/06/16 00:25:02;;;;;;;3.90;2.90;;;;;;;17.27;61.82;94725.63;5056618;28;20028;-82
2021/06/16 00:27:28;;;;;;;2.97;2.70;;;;;;;17.32;61.65;94714.28;5036305;28;20029;-83
2021/06/16 00:29:53;;;;;;;5.63;2.85;;;;;;;17.34;61.61;94710.31;5035807;28;20032;-84
2021/06/16 00:32:19;;;;;;;2.70;2.45;;;;;;;17.35;61.71;94711.88;5035048;28;20037;-83
2021/06/16 00:34:56;;;;;;;3.03;2.72;;;;;;;17.34;61.61;94707.66;5019840;28;20025;-83
2021/06/16 00:37:23;;;;;;;9.02;2.65;;;;;;;17.31;61.67;94713.50;5044012;28;20045;-83
2021/06/16 00:39:49;;;;;;;5.15;2.85;;;;;;;17.29;61.76;94697.22;5035870;28;20065;-83
2021/06/16 00:42:15;;;;;;;8.07;2.88;;;;;;;17.30;61.50;94698.78;5055065;28;20036;-83
2021/06/16 00:44:40;;;;;;;3.00;2.80;;;;;;;17.31;61.56;94694.31;5021458;28;20044;-83
2021/06/16 00:47:09;;;;;;;4.65;2.70;;;;;;;17.32;61.72;94701.91;5021136;28;20037;-83
2021/06/16 00:49:34;;;;;;;3.03;2.78;;;;;;;17.32;61.58;94694.03;5037111;28;20124;-83
2021/06/16 00:52:00;;;;;;;7.38;2.78;;;;;;;17.33;61.65;94692.97;5055936;28;20037;-83
2021/06/16 00:54:26;;;;;;;5.28;2.83;;;;;;;17.37;61.48;94687.94;5036315;28;20048;-82
2021/06/16 00:56:57;;;;;;;5.38;2.78;;;;;;;17.30;61.40;94677.75;5038828;28;20037;-83
2021/06/16 00:59:23;;;;;;;5.43;3.23;;;;;;;17.44;61.42;94693.66;5040095;28;20032;-83
2021/06/16 01:01:48;;;;;;;4.93;2.80;;;;;;;17.45;61.19;94694.44;5025882;28;20021;-83
2021/06/16 01:04:13;;;;;;;6.68;3.08;;;;;;;17.44;61.11;94688.41;5050514;28;20043;-82
2021/06/16 01:06:45;;;;;;;2.92;2.38;;;;;;;17.48;61.15;94678.91;5136865;22;20049;-82
2021/06/16 01:09:51;;;;;;;4.20;2.57;;;;;;;17.51;61.04;94670.44;5019789;28;20059;-82
2021/06/16 01:12:23;;;;;;;2.95;2.55;;;;;;;17.50;60.89;94673.38;5049324;28;20276;-81
2021/06/16 01:14:53;;;;;;;4.22;2.67;;;;;;;17.51;60.91;94686.22;5009654;28;20108;-83
2021/06/16 01:17:25;;;;;;;2.60;2.40;;;;;;;17.47;61.03;94684.44;5002289;28;20132;-81
2021/06/16 01:19:50;;;;;;;4.83;2.20;;;;;;;17.51;61.22;94688.06;5033581;28;20034;-82
2021/06/16 01:22:49;;;;;;;5.20;2.67;;;;;;;17.54;61.34;94685.66;5038919;28;20056;-82
2021/06/16 01:25:42;;;;;;;2.53;2.33;;;;;;;17.58;60.96;94689.31;5000690;28;20061;-83
2021/06/16 01:28:15;;;;;;;6.47;2.55;;;;;;;17.60;60.69;94687.19;5023376;28;20033;-83
2021/06/16 01:30:41;;;;;;;3.55;2.50;;;;;;;17.62;60.70;94687.69;5038328;28;20041;-83
2021/06/16 01:33:06;;;;;;;9.98;2.70;;;;;;;17.65;60.48;94679.25;5003093;28;20044;-83
2021/06/16 01:35:32;;;;;;;4.45;2.90;;;;;;;17.66;60.70;94683.44;5037789;28;20037;-83
2021/06/16 01:37:58;;;;;;;4.63;3.03;;;;;;;17.66;60.50;94680.03;5018374;28;20035;-83
2021/06/16 01:40:23;;;;;;;7.57;2.70;;;;;;;17.65;60.28;94689.00;5020299;28;20037;-83
2021/06/16 01:42:48;;;;;;;6.82;2.50;;;;;;;17.66;60.44;94685.28;5002374;28;20033;-83
2021/06/16 01:45:16;;;;;;;4.80;2.83;;;;;;;17.66;60.51;94680.03;5037381;28;20061;-83
2021/06/16 01:47:41;;;;;;;8.38;2.78;;;;;;;17.62;60.43;94679.03;5017168;28;20145;-83
2021/06/16 01:50:07;;;;;;;3.47;2.97;;;;;;;17.66;60.27;94685.28;5002247;28;20057;-83
2021/06/16 01:52:32;;;;;;;5.20;3.20;;;;;;;17.63;60.36;94681.38;5002867;28;20028;-83
2021/06/16 01:54:58;;;;;;;3.22;2.85;;;;;;;17.64;60.01;94679.53;5003373;28;20026;-84
2021/06/16 01:57:23;;;;;;;9.65;3.00;;;;;;;17.59;60.56;94676.97;5018931;28;20037;-84
2021/06/16 01:59:49;;;;;;;3.70;2.50;;;;;;;17.59;60.63;94674.34;5036290;28;20083;-83
2021/06/16 02:02:14;;;;;;;3.08;2.70;;;;;;;17.57;60.64;94686.94;5019113;28;20103;-84
2021/06/16 02:04:40;;;;;;;4.75;2.47;;;;;;;17.54;60.77;94679.63;5002150;28;20667;-84
2021/06/16 02:07:15;;;;;;;4.75;2.70;;;;;;;17.49;60.69;94679.69;5018094;28;20038;-84
2021/06/16 02:09:41;;;;;;;9.27;2.88;;;;;;;17.47;60.79;94676.56;5018886;28;20094;-84
2021/06/16 02:12:09;;;;;;;17.15;3.13;;;;;;;17.42;60.83;94671.34;4990996;28;20029;-83
2021/06/16 02:14:35;;;;;;;8.23;3.38;;;;;;;17.45;60.89;94686.56;5024151;28;20025;-84
2021/06/16 02:17:21;;;;;;;9.68;3.03;;;;;;;17.45;60.46;94683.94;5002546;28;20036;-84
2021/06/16 02:19:47;;;;;;;7.03;3.25;;;;;;;17.42;60.91;94685.28;5020727;28;20511;-84
2021/06/16 02:22:13;;;;;;;10.07;3.17;;;;;;;17.39;61.00;94681.34;4986131;28;20119;-84
2021/06/16 02:24:39;;;;;;;3.53;3.22;;;;;;;17.38;60.95;94679.78;5002526;28;20044;-82
2021/06/16 02:27:05;;;;;;;3.55;3.00;;;;;;;17.34;61.00;94678.75;5002389;28;20075;-84
2021/06/16 02:29:30;;;;;;;4.53;3.13;;;;;;;17.35;61.43;94685.59;4986119;28;20040;-82
2021/06/16 02:31:56;;;;;;;4.47;3.05;;;;;;;17.34;61.29;94683.25;5002144;28;20030;-84
2021/06/16 02:34:22;;;;;;;7.78;3.08;;;;;;;17.32;61.15;94688.78;4985438;28;20032;-84
2021/06/16 02:36:49;;;;;;;8.57;3.15;;;;;;;17.28;61.45;94682.50;5036440;28;20171;-84
2021/06/16 02:39:19;;;;;;;3.47;3.10;;;;;;;17.24;61.47;94689.34;5011258;28;20501;-83
2021/06/16 02:41:45;;;;;;;5.00;3.60;;;;;;;17.21;61.62;94689.91;5001193;28;20033;-84
2021/06/16 02:44:11;;;;;;;3.92;3.15;;;;;;;17.16;61.86;94681.28;4985956;28;20067;-84
2021/06/16 02:46:36;;;;;;;7.43;4.10;;;;;;;17.10;61.77;94670.84;4985318;28;20064;-84
2021/06/16 02:49:11;;;;;;;6.30;3.47;;;;;;;17.17;61.72;94685.50;5019999;28;20044;-84
2021/06/16 02:51:39;;;;;;;3.83;3.25;;;;;;;17.20;61.59;94688.34;5002895;28;20041;-84
2021/06/16 02:54:09;;;;;;;6.47;3.25;;;;;;;17.25;61.81;94690.94;5002192;28;20029;-84
2021/06/16 02:56:37;;;;;;;7.85;2.83;;;;;;;17.21;61.61;94689.91;4986674;28;20544;-85
2021/06/16 02:59:02;;;;;;;8.88;3.60;;;;;;;17.20;61.28;94684.94;5002006;28;20030;-84
2021/06/16 03:01:27;;;;;;;12.57;3.42;;;;;;;17.18;61.49;94693.09;5018025;28;20036;-84
2021/06/16 03:03:53;;;;;;;3.13;2.83;;;;;;;17.21;61.63;94689.91;4985523;28;20031;-83
2021/06/16 03:06:20;;;;;;;13.70;3.88;;;;;;;17.17;61.66;94702.03;5000732;28;20037;-82
2021/06/16 03:08:46;;;;;;;2.90;2.70;;;;;;;17.17;62.01;94702.03;5000771;28;20492;-82
2021/06/16 03:11:12;;;;;;;2.72;2.53;;;;;;;17.19;61.77;94705.16;5074747;23;20087;-83
2021/06/16 03:13:37;;;;;;;10.98;3.83;;;;;;;17.22;61.49;94706.47;5028431;28;20476;-83
2021/06/16 03:16:03;;;;;;;6.72;3.38;;;;;;;17.21;61.49;94699.63;5036231;28;20044;-82
2021/06/16 03:18:29;;;;;;;15.93;3.50;;;;;;;17.24;61.41;94699.88;5015294;28;20137;-84
2021/06/16 03:20:58;;;;;;;4.50;3.10;;;;;;;17.27;61.38;94696.72;5062775;28;20025;-84
2021/06/16 03:23:24;;;;;;;3.45;2.92;;;;;;;17.28;61.21;94700.91;5062050;28;20036;-84
2021/06/16 03:25:56;;;;;;;7.80;2.85;;;;;;;17.27;61.33;94694.09;5046902;28;20100;-85
2021/06/16 03:28:25;;;;;;;9.57;3.50;;;;;;;17.25;61.17;94698.84;5012886;28;20067;-85
2021/06/16 03:30:52;;;;;;;7.75;4.53;;;;;;;17.21;61.33;94689.13;5012486;28;20504;-85
2021/06/16 03:33:18;;;;;;;5.72;3.00;;;;;;;17.36;61.01;94697.66;5044702;28;20619;-84
2021/06/16 03:35:43;;;;;;;9.10;3.15;;;;;;;17.47;60.84;94697.59;5031195;28;20052;-84
2021/06/16 03:38:09;;;;;;;7.13;2.97;;;;;;;17.55;60.69;94694.34;5048190;28;20036;-84
2021/06/16 03:40:34;;;;;;;8.95;3.10;;;;;;;17.62;60.45;94706.13;5046194;28;20029;-83
2021/06/16 03:43:00;;;;;;;7.88;3.25;;;;;;;17.64;60.65;94705.84;5031462;28;20021;-84
2021/06/16 03:45:26;;;;;;;7.80;3.47;;;;;;;17.69;60.68;94706.59;5029534;28;20033;-86
2021/06/16 03:47:54;;;;;;;8.98;3.90;;;;;;;17.84;60.54;94703.00;5030010;28;20079;-83
2021/06/16 03:50:20;;;;;;;6.28;2.85;;;;;;;18.04;59.80;94699.38;5046355;28;20459;-84
2021/06/16 03:52:45;;;;;;;9.75;3.30;;;;;;;18.17;59.63;94700.53;5031233;28;20029;-83
2021/06/16 03:55:11;;;;;;;11.70;2.88;;;;;;;18.31;59.24;94706.69;5027801;28;20032;-84
2021/06/16 03:57:38;;;;;;;5.47;3.00;;;;;;;18.39;59.12;94708.72;5044186;28;20029;-85
2021/06/16 04:00:04;;;;;;;11.55;2.90;;;;;;;18.57;58.43;94713.22;5014367;28;20032;-82
2021/06/16 04:02:30;;;;;;;4.30;2.97;;;;;;;18.83;57.58;94712.88;5032378;28;20020;-83
2021/06/16 04:05:02;;;;;;;14.35;3.40;;;;;;;20.31;53.29;94708.50;5034137;28;20047;-84
2021/06/16 04:07:28;;;;;;;9.27;2.50;;;;;;;22.54;46.85;94707.63;5067976;28;20057;-80
2021/06/16 04:09:54;;;;;;;11.38;2.53;;;;;;;24.63;42.11;94703.50;5053976;28;20029;-80
2021/06/16 04:12:20;;;;;;;10.55;2.47;;;;;;;26.49;39.34;94712.19;5068814;28;20036;-77
2021/06/16 04:14:45;;;;;;;5.28;2.72;;;;;;;28.21;35.24;94706.97;5060925;28;20036;-77
2021/06/16 04:17:11;;;;;;;4.80;2.33;;;;;;;29.17;32.51;94704.56;5046008;28;20033;-77
2021/06/16 04:19:37;;;;;;;7.30;2.45;;;;;;;29.37;31.97;94705.31;5069921;28;20460;-76
2021/06/16 04:22:03;;;;;;;3.97;2.08;;;;;;;29.92;30.67;94702.50;5018503;28;20068;-76
2021/06/16 04:24:28;;;;;;;6.78;2.25;;;;;;;30.70;29.72;94703.78;5035093;28;20040;-77
2021/06/16 04:26:54;;;;;;;5.53;2.38;;;;;;;29.88;30.23;94707.81;5031322;28;20484;-76
2021/06/16 04:29:19;;;;;;;3.13;2.13;;;;;;;30.75;29.16;94706.13;5060059;28;20024;-76
2021/06/16 04:31:44;;;;;;;2.63;2.08;;;;;;;30.70;28.91;94706.47;5027609;28;20032;-76
2021/06/16 04:34:10;;;;;;;6.25;2.33;;;;;;;30.61;29.05;94711.31;5026404;28;20060;-76
2021/06/16 04:36:35;;;;;;;7.38;2.03;;;;;;;31.53;27.95;94709.81;5061869;28;20078;-76
2021/06/16 04:39:01;;;;;;;5.13;2.00;;;;;;;32.35;26.90;94704.47;5062507;28;20098;-76
2021/06/16 04:41:26;;;;;;;5.05;2.17;;;;;;;32.93;25.96;94701.03;5060512;28;20561;-75
2021/06/16 04:43:52;;;;;;;1.92;1.70;;;;;;;31.34;27.77;94691.97;5043802;28;20045;-76
2021/06/16 04:46:17;;;;;;;7.32;1.80;;;;;;;32.67;26.39;94702.78;5042904;28;20039;-76
2021/06/16 04:48:43;;;;;;;9.18;1.67;;;;;;;33.81;24.47;94705.22;5060897;28;20559;-76
2021/06/16 04:51:09;;;;;;;5.63;2.05;;;;;;;33.28;25.22;94706.59;5042465;28;20115;-76
2021/06/16 04:53:34;;;;;;;3.60;1.85;;;;;;;34.13;23.97;94713.38;5043033;28;20032;-77
2021/06/16 04:56:00;;;;;;;10.30;1.88;;;;;;;35.03;22.93;94707.53;5061888;28;20040;-86
2021/06/16 04:58:32;;;;;;;2.28;2.03;;;;;;;36.62;21.08;94698.91;5011133;28;20392;-86
2021/06/16 05:00:57;;;;;;;6.65;1.80;;;;;;;36.27;20.94;94706.13;5061864;28;20053;-84
2021/06/16 05:03:23;;;;;;;5.50;2.10;;;;;;;36.06;21.29;94701.63;5066108;28;20514;-87
2021/06/16 05:05:48;;;;;;;6.55;1.70;;;;;;;35.94;21.42;94709.47;5050237;28;20037;-85
2021/06/16 05:08:17;;;;;;;8.55;2.22;;;;;;;36.01;21.19;94702.06;5065007;28;20040;-86
2021/06/16 05:10:42;;;;;;;5.10;1.88;;;;;;;35.75;21.33;94708.00;5062107;28;21745;-87
2021/06/16 05:13:08;;;;;;;12.55;2.33;;;;;;;35.96;21.18;94707.13;5064352;28;20047;-86
2021/06/16 05:15:33;;;;;;;3.95;2.10;;;;;;;34.76;22.69;94719.91;5061717;28;20036;-87
2021/06/16 05:17:59;;;;;;;7.47;1.75;;;;;;;33.78;23.69;94722.94;5044943;28;20103;-86
2021/06/16 05:20:24;;;;;;;8.10;2.10;;;;;;;34.01;23.59;94731.50;5057649;28;20033;-86
2021/06/16 05:22:50;;;;;;;6.85;2.20;;;;;;;35.64;21.84;94735.13;5061695;22;20193;-86
2021/06/16 05:25:16;;;;;;;13.93;2.58;;;;;;;34.77;23.04;94733.03;5056949;23;20666;-86
2021/06/16 05:27:42;;;;;;;2.60;2.30;;;;;;;32.92;24.83;94731.81;5072581;28;20089;-86
2021/06/16 05:30:10;;;;;;;5.85;2.25;;;;;;;32.42;25.58;94732.22;5056305;28;20028;-86
2021/06/16 05:32:36;;;;;;;6.38;1.98;;;;;;;33.41;25.02;94729.38;5038416;28;20120;-86
2021/06/16 05:35:02;;;;;;;8.75;1.70;;;;;;;34.29;23.39;94727.25;5055450;28;20028;-86
2021/06/16 05:37:27;;;;;;;6.25;1.90;;;;;;;34.52;23.82;94733.09;5074167;28;20081;-87
2021/06/16 05:39:59;;;;;;;20.42;2.00;;;;;;;34.99;23.01;94731.09;5073370;22;20095;-88
2021/06/16 05:42:24;;;;;;;;;;;;;;;33.77;24.20;94739.50;5014797;28;20033;-87
2021/06/16 05:44:56;;;;;;;3.63;2.20;;;;;;;31.79;26.92;94733.19;5014497;28;20501;-86
2021/06/16 05:47:21;;;;;;;7.80;2.40;;;;;;;29.94;29.39;94740.44;5014793;28;20346;-88
2021/06/16 05:49:56;;;;;;;7.78;2.20;;;;;;;28.67;31.36;94737.50;5033283;23;20037;-88
2021/06/16 05:52:21;;;;;;;9.65;2.30;;;;;;;27.70;33.42;94746.94;5054147;28;20044;-88
2021/06/16 05:54:47;;;;;;;7.47;2.53;;;;;;;26.97;34.91;94741.78;5037165;28;20033;-88
2021/06/16 05:57:12;;;;;;;20.48;3.28;;;;;;;26.64;35.83;94740.06;5037198;28;20060;-88
2021/06/16 05:59:38;;;;;;;4.63;2.28;;;;;;;26.80;35.52;94724.16;5037514;28;20528;-88
2021/06/16 06:02:03;;;;;;;2.63;1.92;;;;;;;27.84;34.13;94736.63;5037844;28;20041;-87
2021/06/16 06:04:29;;;;;;;6.85;2.13;;;;;;;30.70;29.49;94723.34;5020232;28;20428;-88
2021/06/16 06:06:54;;;;;;;18.70;2.20;;;;;;;33.53;25.53;94732.91;5035776;28;20064;-87
2021/06/16 06:09:20;;;;;;;5.88;1.77;;;;;;;35.48;22.15;94726.72;5035775;28;20025;-85
2021/06/16 06:11:45;;;;;;;12.88;1.95;;;;;;;37.56;20.32;94744.38;5020447;28;20036;-87
2021/06/16 06:14:11;;;;;;;13.75;3.15;;;;;;;39.22;18.43;94728.66;5036575;28;20397;-87
2021/06/16 06:16:36;;;;;;;3.38;2.15;;;;;;;40.28;17.31;94719.41;5027213;28;20024;-87
2021/06/16 06:19:02;;;;;;;7.43;2.08;;;;;;;40.20;17.10;94729.72;5027829;28;20060;-85
2021/06/16 06:21:37;;;;;;;11.30;2.10;;;;;;;39.72;17.53;94733.09;5037674;28;20025;-85
2021/06/16 06:24:15;;;;;;;11.25;2.00;;;;;;;38.20;18.93;94731.13;5036244;28;20119;-87
2021/06/16 06:29:17;;;;;;;3.83;1.98;;;;;;;34.10;23.24;94731.09;5127699;22;20053;-86
2021/06/16 06:32:17;;;;;;;7.65;2.33;;;;;;;32.25;26.02;94739.00;5057855;28;20543;-86
2021/06/16 06:34:48;;;;;;;8.90;1.85;;;;;;;30.85;28.28;94715.50;5036605;28;20055;-86
2021/06/16 06:37:36;;;;;;;7.68;2.40;;;;;;;29.60;30.59;94724.16;5068818;28;20067;-88
2021/06/16 06:42:32;;;;;;;21.80;2.70;;;;;;;27.63;34.08;94720.81;5070582;22;20056;-86
2021/06/16 06:44:57;;;;;;;10.43;2.60;;;;;;;27.01;35.73;94753.38;5053660;28;20029;-86
2021/06/16 06:47:25;;;;;;;7.93;2.75;;;;;;;26.56;36.93;94754.31;5036818;28;20036;-86
2021/06/16 06:49:51;;;;;;;8.00;2.85;;;;;;;26.28;37.47;94759.50;5038540;28;20029;-86
2021/06/16 06:52:16;;;;;;;9.77;2.42;;;;;;;26.07;37.98;94764.91;5038408;28;20035;-86
2021/06/16 06:54:42;;;;;;;6.70;2.40;;;;;;;25.93;38.59;94772.44;5039807;28;20086;-86
2021/06/16 06:57:10;;;;;;;6.72;2.67;;;;;;;25.81;38.97;94767.06;5065669;22;20057;-86
2021/06/16 06:59:36;;;;;;;7.00;2.60;;;;;;;25.89;38.66;94764.31;5067497;22;20128;-87
2021/06/16 07:02:02;;;;;;;5.72;2.60;;;;;;;26.02;38.50;94768.56;5037492;28;20049;-86
2021/06/16 07:04:27;;;;;;;7.35;2.67;;;;;;;26.16;37.84;94773.56;5054593;28;20090;-86
2021/06/16 07:06:53;;;;;;;6.53;2.00;;;;;;;26.24;37.35;94763.94;5035781;28;20502;-86
2021/06/16 07:09:24;;;;;;;3.58;2.00;;;;;;;26.24;37.33;94769.28;5056677;28;20029;-86
2021/06/16 07:11:51;;;;;;;4.43;2.20;;;;;;;26.33;37.68;94773.38;5055186;28;20025;-86
2021/06/16 07:14:16;;;;;;;8.00;2.15;;;;;;;26.52;37.14;94769.41;5055489;28;20040;-86
2021/06/16 07:16:42;;;;;;;9.52;2.40;;;;;;;26.90;36.37;94763.72;5059597;28;20029;-86
2021/06/16 07:21:35;;;;;;;7.97;2.90;;;;;;;27.81;35.60;94764.78;5079858;22;20083;-86
2021/06/16 07:24:01;;;;;;;13.50;3.10;;;;;;;28.27;34.24;94759.09;5075840;22;20033;-85
2021/06/16 07:26:26;;;;;;;9.82;3.08;;;;;;;28.38;34.70;94770.84;5051904;28;20420;-86
2021/06/16 07:28:52;;;;;;;17.10;3.70;;;;;;;28.37;34.62;94769.28;5044099;28;20091;-86
2021/06/16 07:31:20;;;;;;;6.20;2.60;;;;;;;28.61;34.62;94774.44;5014832;28;20033;-87
2021/06/16 07:33:55;;;;;;;7.45;2.60;;;;;;;28.86;34.14;94756.31;5087118;22;20034;-86
2021/06/16 07:36:20;;;;;;;5.65;2.45;;;;;;;28.80;33.97;94746.19;5026230;28;20037;-86
2021/06/16 07:41:15;;;;;;;7.53;2.60;;;;;;;28.20;35.08;94756.22;5112787;22;20091;-87
2021/06/16 07:43:40;;;;;;;11.23;2.58;;;;;;;27.92;35.32;94730.34;5024173;22;20208;-87
2021/06/16 07:46:06;;;;;;;6.95;2.22;;;;;;;27.51;35.96;94732.31;5029376;28;20516;-87
2021/06/16 07:48:31;;;;;;;6.63;2.40;;;;;;;27.38;36.24;94730.81;5034555;28;20041;-87
2021/06/16 07:51:00;;;;;;;13.18;2.47;;;;;;;27.86;36.39;94737.06;5033087;28;20501;-88
2021/06/16 07:53:25;;;;;;;13.60;2.63;;;;;;;28.08;36.06;94735.69;5017671;28;20040;-86
2021/06/16 07:55:52;;;;;;;5.38;2.40;;;;;;;28.46;34.90;94735.09;5016494;28;20037;-87
2021/06/16 07:58:18;;;;;;;9.68;2.00;;;;;;;28.75;33.79;94730.41;5016938;28;20497;-86
2021/06/16 08:00:44;;;;;;;10.55;2.92;;;;;;;28.92;33.42;94732.72;5018085;28;20041;-87
2021/06/16 08:03:09;;;;;;;6.32;2.28;;;;;;;28.46;33.92;94740.44;5033299;28;20112;-86
2021/06/16 08:05:34;;;;;;;5.90;2.40;;;;;;;28.53;33.35;94745.22;4998944;28;20513;-86
2021/06/16 08:08:00;;;;;;;2.95;1.95;;;;;;;28.33;32.86;94741.69;5052310;28;20055;-87
2021/06/16 08:10:27;;;;;;;3.17;2.15;;;;;;;28.14;32.73;94749.56;5037553;28;20059;-87
2021/06/16 08:12:52;;;;;;;4.50;1.80;;;;;;;27.43;33.85;94759.94;5040844;28;20084;-86
2021/06/16 08:15:17;;;;;;;2.58;1.90;;;;;;;27.12;34.82;94749.13;4997723;28;20124;-86
2021/06/16 08:17:43;;;;;;;3.03;1.73;;;;;;;27.32;34.48;94752.75;5037948;28;20485;-87
2021/06/16 08:20:10;;;;;;;4.43;1.60;;;;;;;27.24;34.77;94751.00;5016022;28;20123;-87
2021/06/16 08:25:06;;;;;;;4.25;2.00;;;;;;;27.56;35.58;94759.91;5020421;28;20056;-86
2021/06/16 08:27:31;;;;;;;4.07;2.00;;;;;;;27.89;34.96;94773.00;5024370;28;20040;-87
2021/06/16 08:29:57;;;;;;;2.20;1.77;;;;;;;28.06;34.83;94770.03;5006149;28;20034;-86
2021/06/16 08:32:22;;;;;;;12.70;1.95;;;;;;;27.92;34.12;94775.78;4987802;28;20033;-86
2021/06/16 08:34:48;;;;;;;2.25;1.90;;;;;;;27.51;34.20;94772.38;5013658;28;20034;-86
2021/06/16 08:37:13;;;;;;;5.75;2.10;;;;;;;27.33;35.04;94773.75;5019135;28;20026;-86
2021/06/16 08:39:39;;;;;;;6.40;2.08;;;;;;;27.51;34.90;94774.28;5022220;28;20433;-86
2021/06/16 08:42:04;;;;;;;4.18;2.10;;;;;;;27.72;34.30;94771.44;5021838;28;20037;-86
2021/06/16 08:44:31;;;;;;;3.25;1.90;;;;;;;27.74;34.53;94769.97;5031015;28;20201;-86
2021/06/16 08:46:56;;;;;;;1.98;1.88;;;;;;;27.53;34.22;94780.06;5012330;28;20091;-86
2021/06/16 08:49:22;;;;;;;2.53;2.05;;;;;;;27.33;35.41;94786.34;5025639;28;20670;-86
2021/06/16 08:51:47;;;;;;;4.20;2.00;;;;;;;27.01;35.65;94782.72;5025400;28;20038;-86
2021/06/16 08:54:13;;;;;;;4.10;1.90;;;;;;;26.68;36.11;94785.50;5023395;28;20202;-86
2021/06/16 08:56:41;;;;;;;2.17;2.05;;;;;;;26.29;37.43;94799.16;5014033;28;20060;-88
2021/06/16 08:59:07;;;;;;;5.95;2.00;;;;;;;26.26;37.44;94799.81;5023948;28;20029;-85
2021/06/16 09:01:32;;;;;;;5.45;2.30;;;;;;;26.18;37.90;94792.69;5023174;28;20056;-86
2021/06/16 09:03:58;;;;;;;6.53;2.45;;;;;;;26.24;38.24;94802.03;4986828;28;20031;-88
2021/06/16 09:06:28;;;;;;;6.07;2.50;;;;;;;26.43;38.05;94804.19;5031315;28;20029;-86
2021/06/16 09:08:56;;;;;;;3.58;2.22;;;;;;;26.66;38.23;94799.19;5006488;28;20025;-86
2021/06/16 09:11:22;;;;;;;5.18;3.10;;;;;;;26.82;37.77;94800.06;5022762;28;20156;-86
2021/06/16 09:13:48;;;;;;;6.38;2.50;;;;;;;26.88;37.46;94796.09;4986392;28;20048;-86
2021/06/16 09:16:30;;;;;;;11.82;2.50;;;;;;;27.12;36.94;94797.19;5023498;28;20038;-87
2021/06/16 09:18:56;;;;;;;8.40;2.15;;;;;;;27.20;35.87;94798.97;5026478;28;20033;-86
2021/06/16 09:21:43;;;;;;;2.75;1.80;;;;;;;27.29;36.24;94807.59;5029314;28;20038;-86
2021/06/16 09:24:09;;;;;;;4.93;2.15;;;;;;;27.25;35.99;94804.06;5039054;28;20508;-86
2021/06/16 09:26:35;;;;;;;14.63;2.67;;;;;;;27.30;36.39;94811.03;5039968;28;20064;-86
2021/06/16 09:29:01;;;;;;;6.18;2.88;;;;;;;27.29;36.92;94817.50;5026494;28;20412;-87
2021/06/16 09:31:26;;;;;;;3.33;2.03;;;;;;;27.14;36.65;94810.97;5006939;28;20029;-86
2021/06/16 09:33:54;;;;;;;9.95;2.50;;;;;;;27.09;37.22;94811.22;5081973;22;20122;-86
2021/06/16 09:36:21;;;;;;;7.28;2.00;;;;;;;26.94;37.36;94807.31;5048599;28;20037;-87
2021/06/16 09:38:47;;;;;;;6.93;2.38;;;;;;;27.02;37.50;94808.34;5047185;28;20036;-87
2021/06/16 09:41:19;;;;;;;3.03;2.00;;;;;;;27.27;37.53;94809.06;5062683;28;20064;-87
2021/06/16 09:43:45;;;;;;;;;;;;;;;27.56;37.33;94810.66;5062045;28;20090;-86
2021/06/16 09:46:17;;;;;;;4.05;2.50;;;;;;;27.43;36.83;94802.66;5036948;28;19916;-87
2021/06/16 09:48:46;;;;;;;7.43;2.40;;;;;;;27.33;36.87;94807.69;5070403;22;20395;-87
2021/06/16 09:51:33;;;;;;;8.02;2.70;;;;;;;27.22;36.34;94815.41;5085424;28;20095;-87
2021/06/16 09:54:12;;;;;;;7.82;2.00;;;;;;;26.94;36.19;94812.63;5041755;28;20029;-87
2021/06/16 09:56:39;;;;;;;5.22;1.65;;;;;;;26.48;36.60;94816.53;5059522;28;20265;-87
2021/06/16 09:59:12;;;;;;;7.38;2.13;;;;;;;26.01;38.19;94822.97;5059158;28;20035;-87
2021/06/16 10:01:55;;;;;;;10.20;2.28;;;;;;;25.76;38.79;94823.22;5033982;28;20065;-86
2021/06/16 10:04:42;;;;;;;2.33;2.13;;;;;;;25.50;39.64;94826.06;5076457;28;20033;-87
2021/06/16 10:07:14;;;;;;;6.20;2.03;;;;;;;25.53;39.10;94831.50;5058980;28;20064;-87
2021/06/16 10:09:46;;;;;;;3.78;2.03;;;;;;;25.64;38.95;94826.56;5073106;28;20036;-87
2021/06/16 10:12:12;;;;;;;3.85;2.20;;;;;;;25.69;39.33;94835.16;5074586;28;20029;-86
2021/06/16 10:14:37;;;;;;;5.38;2.72;;;;;;;25.83;40.01;94826.91;5058077;28;20055;-87
2021/06/16 10:17:03;;;;;;;7.68;2.30;;;;;;;26.01;39.63;94830.16;5069727;28;20032;-87
2021/06/16 10:19:28;;;;;;;6.80;2.60;;;;;;;26.12;39.37;94823.31;5074678;28;20411;-87
2021/06/16 10:21:54;;;;;;;11.25;3.58;;;;;;;26.25;38.88;94824.91;5058687;28;20036;-87
2021/06/16 10:24:23;;;;;;;8.30;2.83;;;;;;;26.51;38.43;94826.53;5030479;28;20035;-86
2021/06/16 10:26:49;;;;;;;10.50;2.53;;;;;;;26.63;37.85;94829.19;5055514;28;20032;-87
2021/06/16 10:29:16;;;;;;;9.20;2.53;;;;;;;26.70;37.38;94823.34;5029259;28;20043;-86
2021/06/16 10:31:41;;;;;;;3.92;2.33;;;;;;;26.63;38.43;94823.88;5075544;28;20033;-87
2021/06/16 10:34:07;;;;;;;6.25;2.20;;;;;;;26.59;38.46;94822.97;5075204;28;20470;-87
2021/06/16 10:36:33;;;;;;;9.35;2.38;;;;;;;26.56;38.58;94818.31;5073842;28;20484;-87
2021/06/16 10:39:01;;;;;;;3.33;2.05;;;;;;;26.72;37.80;94829.88;5056416;28;20028;-87
2021/06/16 10:41:45;;;;;;;4.70;1.77;;;;;;;26.78;37.04;94823.22;5071309;28;20039;-87
2021/06/16 10:44:20;;;;;;;7.05;2.20;;;;;;;26.81;37.63;94829.75;5074174;28;20033;-87
2021/06/16 10:47:08;;;;;;;2.35;1.90;;;;;;;26.90;37.53;94827.78;5043375;28;20033;-87
2021/06/16 10:49:43;;;;;;;6.25;2.00;;;;;;;27.05;36.78;94824.44;5070341;28;20036;-87
2021/06/16 10:52:13;;;;;;;3.92;2.33;;;;;;;27.12;37.50;94815.88;5068754;28;20054;-87
2021/06/16 10:54:38;;;;;;;2.88;2.00;;;;;;;27.21;37.21;94821.88;5071336;28;20409;-87
2021/06/16 10:57:05;;;;;;;6.18;2.25;;;;;;;27.30;37.13;94825.16;5030516;28;20511;-87
2021/06/16 10:59:46;;;;;;;12.00;2.45;;;;;;;27.31;37.47;94821.38;5076724;28;20032;-87
2021/06/16 11:02:11;;;;;;;3.47;1.80;;;;;;;27.40;36.71;94819.38;5075198;28;20032;-87
2021/06/16 11:04:41;;;;;;;2.03;1.77;;;;;;;27.46;35.61;94820.69;5065987;28;20175;-86
2021/06/16 11:07:38;;;;;;;10.93;2.40;;;;;;;27.54;36.36;94812.88;5056022;28;20096;-87
2021/06/16 11:12:37;;;;;;;4.15;2.40;;;;;;;27.54;35.69;94808.31;5060816;22;20059;-87
2021/06/16 11:15:04;;;;;;;2.15;1.23;;;;;;;26.97;33.42;94811.97;5056312;28;20058;-87
2021/06/16 11:17:29;;;;;;;1.55;1.40;;;;;;;26.72;33.73;94813.09;5046042;28;20044;-87
2021/06/16 11:20:18;;;;;;;7.72;5.35;;;;;;;26.70;33.61;94794.75;5054448;28;20037;-87
2021/06/16 11:22:43;;;;;;;12.43;8.73;;;;;;;27.15;33.21;94791.16;5042464;28;20078;-86
2021/06/16 11:25:18;;;;;;;1.60;1.50;;;;;;;27.40;32.73;94798.00;5054848;28;20037;-88
2021/06/16 11:28:09;;;;;;;1.55;1.42;;;;;;;27.62;32.44;94796.69;5054640;28;20041;-86
2021/06/16 11:30:44;;;;;;;3.95;1.33;;;;;;;27.50;33.47;94797.53;5039617;28;20029;-88
2021/06/16 11:33:16;;;;;;;2.05;1.42;;;;;;;27.05;33.12;94805.78;5052792;28;20623;-88
2021/06/16 11:35:42;;;;;;;;;;;;;;;26.61;34.59;94794.09;5054893;28;20393;-87
2021/06/16 11:38:11;;;;;;;7.13;4.70;;;;;;;26.39;34.69;94803.31;5055413;28;19919;-88
2021/06/16 11:40:37;;;;;;;4.38;3.38;;;;;;;26.31;34.84;94796.91;5035880;28;20079;-87
2021/06/16 11:43:03;;;;;;;2.33;1.50;;;;;;;26.15;34.68;94798.66;5019659;28;20072;-87
2021/06/16 11:45:29;;;;;;;3.60;1.77;;;;;;;25.58;35.09;94811.91;5055142;28;20036;-87
2021/06/16 11:47:56;;;;;;;3.10;1.40;;;;;;;25.37;35.28;94801.25;5054148;28;20420;-87
2021/06/16 11:50:31;;;;;;;1.77;1.50;;;;;;;25.31;36.70;94803.34;5037843;28;20037;-87
2021/06/16 11:53:01;;;;;;;2.13;1.40;;;;;;;25.17;36.68;94791.38;5047119;28;20028;-87